Time;durP1;ratioP1;P1;durP2;ratioP2;P2;SDS_P1;SDS_P2;PMS_P1;PMS_P2;Temp;Humidity;BMP_temperature;BMP_pressure;BME280_temperature;BME280_humidity;BME280_pressure;Samples;Min_cycle;Max_cycle;Signal;HPM_P1;HPM_P2
2022/03/13 00:01:36;;;;;;;20.77;15.17;;;3.60;1.00;;;;;;6304206;28;20247;-53
2022/03/13 00:04:39;;;;;;;21.53;14.87;;;3.60;1.00;;;;;;6310389;28;20236;-53
2022/03/13 00:07:42;;;;;;;18.30;14.33;;;3.30;1.00;;;;;;6309526;28;20228;-54
2022/03/13 00:10:50;;;;;;;19.67;15.00;;;3.50;1.00;;;;;;6311393;28;20634;-55
2022/03/13 00:13:54;;;;;;;15.90;14.20;;;3.40;1.00;;;;;;6311420;28;20326;-56
2022/03/13 00:16:57;;;;;;;18.13;13.87;;;3.10;1.00;;;;;;6310722;28;20366;-54
2022/03/13 00:20:02;;;;;;;16.57;13.93;;;3.00;1.00;;;;;;6295625;28;20328;-54
2022/03/13 00:23:06;;;;;;;20.47;14.00;;;3.30;1.00;;;;;;6285756;28;20229;-55
2022/03/13 00:26:09;;;;;;;17.53;13.03;;;3.30;1.00;;;;;;6286046;28;20535;-55
2022/03/13 00:29:13;;;;;;;19.57;14.03;;;3.10;1.00;;;;;;6309947;28;20285;-55
2022/03/13 00:32:17;;;;;;;19.23;13.77;;;3.20;1.00;;;;;;6300783;28;20278;-55
2022/03/13 00:35:20;;;;;;;21.30;14.80;;;3.20;1.00;;;;;;6308998;28;20232;-54
2022/03/13 00:38:25;;;;;;;18.07;14.33;;;3.10;1.00;;;;;;6299556;28;20316;-55
2022/03/13 00:41:28;;;;;;;20.17;14.07;;;3.00;1.00;;;;;;6307844;28;20593;-54
2022/03/13 00:44:32;;;;;;;19.17;14.53;;;3.20;1.00;;;;;;6309807;28;20232;-54
2022/03/13 00:47:35;;;;;;;15.27;13.60;;;3.00;1.00;;;;;;6305644;28;20964;-54
2022/03/13 00:50:38;;;;;;;17.83;14.17;;;2.80;1.00;;;;;;6284626;28;20233;-55
2022/03/13 00:53:42;;;;;;;18.30;14.27;;;3.10;1.00;;;;;;6284190;28;20244;-54
2022/03/13 00:56:45;;;;;;;20.57;14.40;;;3.00;1.00;;;;;;6284197;28;20260;-55
2022/03/13 00:59:49;;;;;;;14.63;13.13;;;2.70;1.00;;;;;;6291356;28;20236;-55
2022/03/13 01:02:52;;;;;;;17.07;13.77;;;2.90;1.00;;;;;;6309431;28;20892;-53
2022/03/13 01:05:55;;;;;;;18.77;14.40;;;2.90;1.00;;;;;;6306790;28;20613;-55
2022/03/13 01:08:58;;;;;;;17.47;13.07;;;2.90;1.00;;;;;;6307303;28;20366;-53
2022/03/13 01:12:00;;;;;;;22.23;14.20;;;2.80;1.00;;;;;;6301313;28;20237;-54
2022/03/13 01:15:08;;;;;;;21.60;14.13;;;2.70;1.00;;;;;;6284398;28;20311;-54
2022/03/13 01:18:11;;;;;;;15.03;13.03;;;2.80;1.00;;;;;;6283864;28;20324;-55
2022/03/13 01:21:15;;;;;;;19.63;13.57;;;2.80;1.00;;;;;;6283323;28;20310;-54
2022/03/13 01:24:32;;;;;;;16.47;13.13;;;2.60;1.00;;;;;;6283471;28;20256;-55
2022/03/13 01:27:35;;;;;;;19.80;13.67;;;2.50;1.00;;;;;;6282862;28;20240;-55
2022/03/13 01:30:39;;;;;;;21.60;14.03;;;2.70;1.00;;;;;;6294056;28;20354;-54
2022/03/13 01:33:42;;;;;;;18.57;13.87;;;2.70;1.00;;;;;;6307094;28;20237;-54
2022/03/13 01:36:45;;;;;;;19.63;14.50;;;2.30;1.00;;;;;;6304099;28;20289;-53
2022/03/13 01:39:49;;;;;;;21.23;13.73;;;2.50;1.00;;;;;;6294168;28;20241;-53
2022/03/13 01:42:54;;;;;;;19.27;14.60;;;2.30;1.00;;;;;;6312096;28;20455;-55
2022/03/13 01:45:59;;;;;;;17.93;13.90;;;2.50;1.00;;;;;;6311215;28;20410;-54
2022/03/13 01:49:05;;;;;;;19.93;14.57;;;2.50;1.00;;;;;;6277541;28;20253;-54
2022/03/13 01:52:09;;;;;;;21.47;14.77;;;2.30;1.00;;;;;;6282784;28;20641;-55
2022/03/13 01:55:12;;;;;;;24.90;15.97;;;2.30;1.00;;;;;;6283587;28;20253;-55
2022/03/13 01:58:15;;;;;;;20.67;15.03;;;2.40;1.00;;;;;;6283458;28;20726;-53
2022/03/13 02:01:20;;;;;;;21.50;14.53;;;2.40;1.00;;;;;;6301593;28;20483;-54
2022/03/13 02:04:27;;;;;;;19.53;14.63;;;2.50;1.00;;;;;;6308426;28;20721;-53
2022/03/13 02:07:30;;;;;;;18.60;14.17;;;2.30;1.00;;;;;;6304052;28;20233;-55
2022/03/13 02:10:33;;;;;;;17.53;14.10;;;2.30;1.00;;;;;;6299308;28;20312;-55
2022/03/13 02:13:36;;;;;;;16.30;14.53;;;2.40;1.00;;;;;;6306670;28;20314;-54
2022/03/13 02:16:40;;;;;;;19.40;14.37;;;2.10;1.00;;;;;;6301956;28;20233;-55
2022/03/13 02:19:43;;;;;;;16.80;13.90;;;2.20;1.00;;;;;;6282488;28;20793;-54
2022/03/13 02:22:52;;;;;;;20.90;14.13;;;2.20;1.00;;;;;;6282370;28;20294;-55
2022/03/13 02:25:57;;;;;;;19.73;14.17;;;2.00;1.00;;;;;;6282674;28;20621;-53
2022/03/13 02:29:01;;;;;;;19.90;14.37;;;1.90;1.00;;;;;;6282744;28;20279;-55
2022/03/13 02:32:04;;;;;;;19.23;14.00;;;2.20;1.00;;;;;;6305665;28;20248;-54
2022/03/13 02:35:08;;;;;;;17.77;13.33;;;2.00;1.00;;;;;;6307062;28;20713;-55
2022/03/13 02:38:12;;;;;;;16.77;14.27;;;2.00;1.00;;;;;;6307461;28;20273;-54
2022/03/13 02:41:15;;;;;;;20.93;14.70;;;1.90;1.00;;;;;;6308750;28;20251;-55
2022/03/13 02:44:18;;;;;;;19.53;14.03;;;1.80;1.00;;;;;;6310107;28;20785;-54
2022/03/13 02:47:21;;;;;;;19.80;14.00;;;1.80;1.00;;;;;;6294999;28;20280;-55
2022/03/13 02:50:24;;;;;;;17.77;13.80;;;1.90;1.00;;;;;;6292781;28;20319;-54
2022/03/13 02:53:28;;;;;;;21.30;14.37;;;1.70;1.00;;;;;;6300679;28;20289;-53
2022/03/13 02:56:30;;;;;;;19.93;14.10;;;1.70;1.00;;;;;;6299062;28;20293;-54
2022/03/13 02:59:33;;;;;;;22.07;15.70;;;1.70;1.00;;;;;;6309174;28;20610;-55
2022/03/13 03:02:37;;;;;;;18.57;14.60;;;1.90;1.00;;;;;;6311127;28;20250;-55
2022/03/13 03:05:39;;;;;;;24.77;14.93;;;1.90;1.00;;;;;;6306455;28;20321;-54
2022/03/13 03:08:44;;;;;;;18.93;14.50;;;1.70;1.00;;;;;;6312269;28;20263;-54
2022/03/13 03:11:47;;;;;;;19.70;15.33;;;1.70;1.00;;;;;;6311031;28;20692;-54
2022/03/13 03:14:49;;;;;;;24.67;14.77;;;1.80;1.00;;;;;;6288183;28;20445;-54
2022/03/13 03:17:52;;;;;;;23.17;15.23;;;1.70;1.00;;;;;;6286659;28;20247;-55
2022/03/13 03:20:55;;;;;;;23.30;14.63;;;1.80;1.00;;;;;;6286980;28;20356;-53
2022/03/13 03:24:00;;;;;;;21.73;14.43;;;1.60;1.00;;;;;;6311944;28;20296;-55
2022/03/13 03:27:03;;;;;;;17.07;14.67;;;1.70;1.00;;;;;;6311720;28;20517;-54
2022/03/13 03:30:07;;;;;;;22.47;14.97;;;1.60;1.00;;;;;;6303827;28;20311;-55
2022/03/13 03:33:10;;;;;;;23.17;14.77;;;1.40;1.00;;;;;;6310427;28;20315;-55
2022/03/13 03:36:15;;;;;;;21.70;15.63;;;1.60;1.00;;;;;;6312217;28;20275;-54
2022/03/13 03:39:20;;;;;;;19.30;15.17;;;1.60;1.00;;;;;;6306363;28;20229;-54
2022/03/13 03:42:23;;;;;;;19.00;14.50;;;1.50;1.00;;;;;;6311364;28;20333;-55
2022/03/13 03:45:26;;;;;;;18.20;14.10;;;1.90;1.00;;;;;;6292405;28;20446;-54
2022/03/13 03:48:30;;;;;;;19.33;14.43;;;1.70;1.00;;;;;;6310853;28;20760;-54
2022/03/13 03:51:34;;;;;;;25.63;15.77;;;1.70;1.00;;;;;;6311463;28;20323;-54
2022/03/13 03:54:38;;;;;;;21.30;15.30;;;1.50;1.00;;;;;;6298350;28;20299;-54
2022/03/13 03:57:41;;;;;;;20.93;15.67;;;1.50;1.00;;;;;;6285983;28;20241;-55
2022/03/13 04:00:44;;;;;;;19.03;14.87;;;1.50;1.00;;;;;;6296893;28;20940;-53
2022/03/13 04:03:47;;;;;;;21.97;15.37;;;1.70;1.00;;;;;;6308393;28;20232;-54
2022/03/13 04:06:50;;;;;;;21.80;15.27;;;1.60;1.00;;;;;;6311032;28;20271;-54
2022/03/13 04:09:54;;;;;;;19.50;14.37;;;1.70;1.00;;;;;;6306474;28;20366;-55
2022/03/13 04:12:57;;;;;;;20.37;15.50;;;1.70;1.00;;;;;;6308954;28;20312;-55
2022/03/13 04:16:24;;;;;;;21.53;14.57;;;1.40;1.00;;;;;;6310470;28;20236;-54
2022/03/13 04:19:27;;;;;;;21.90;14.23;;;1.30;1.00;;;;;;6301140;28;20356;-54
2022/03/13 04:22:30;;;;;;;24.23;14.67;;;1.50;1.00;;;;;;6285595;28;20311;-55
2022/03/13 04:25:35;;;;;;;18.43;14.43;;;1.30;1.00;;;;;;6285740;28;20455;-59
2022/03/13 04:28:37;;;;;;;21.33;14.93;;;1.50;1.00;;;;;;6293545;28;20394;-54
2022/03/13 04:31:42;;;;;;;25.67;14.90;;;1.40;1.00;;;;;;6289254;28;20437;-55
2022/03/13 04:34:51;;;;;;;20.40;14.20;;;1.40;1.00;;;;;;6303821;28;20282;-54
2022/03/13 04:37:53;;;;;;;19.47;13.87;;;1.30;1.00;;;;;;6306713;28;20313;-53
2022/03/13 04:40:58;;;;;;;16.87;14.20;;;1.40;1.00;;;;;;6304841;28;20237;-53
2022/03/13 04:44:01;;;;;;;21.60;14.13;;;1.40;1.00;;;;;;6302420;28;20678;-53
2022/03/13 04:47:04;;;;;;;19.30;14.53;;;1.40;1.00;;;;;;6301685;28;20229;-54
2022/03/13 04:50:08;;;;;;;19.13;14.00;;;1.30;1.00;;;;;;6302572;28;20308;-53
2022/03/13 04:53:11;;;;;;;23.30;14.77;;;1.40;1.00;;;;;;6307005;28;20370;-54
2022/03/13 04:56:15;;;;;;;19.53;14.47;;;1.20;1.00;;;;;;6294516;28;20320;-54
2022/03/13 04:59:18;;;;;;;18.57;14.03;;;1.10;1.00;;;;;;6298013;28;20321;-53
2022/03/13 05:02:21;;;;;;;16.87;14.03;;;1.20;1.00;;;;;;6308003;28;20252;-54
2022/03/13 05:05:24;;;;;;;18.30;13.33;;;1.20;1.00;;;;;;6296051;28;20748;-53
2022/03/13 05:08:27;;;;;;;17.53;13.57;;;1.20;1.00;;;;;;6299612;28;20374;-54
2022/03/13 05:11:31;;;;;;;18.57;13.80;;;1.30;1.00;;;;;;6299288;28;20309;-54
2022/03/13 05:14:34;;;;;;;19.87;14.13;;;1.30;1.00;;;;;;6291876;28;20233;-54
2022/03/13 05:17:37;;;;;;;19.97;14.03;;;1.10;1.00;;;;;;6306338;28;20770;-54
2022/03/13 05:20:40;;;;;;;22.87;14.70;;;1.20;1.00;;;;;;6305898;28;20220;-53
2022/03/13 05:23:42;;;;;;;18.00;13.93;;;1.10;1.00;;;;;;6307874;28;20679;-57
2022/03/13 05:26:47;;;;;;;17.67;13.17;;;1.00;1.00;;;;;;6309313;28;20271;-55
2022/03/13 05:29:49;;;;;;;19.43;14.20;;;0.80;1.00;;;;;;6304288;28;20871;-55
2022/03/13 05:32:52;;;;;;;20.70;15.07;;;1.00;1.00;;;;;;6301257;28;20229;-54
2022/03/13 05:35:55;;;;;;;22.90;13.63;;;0.90;1.00;;;;;;6297194;28;20233;-54
2022/03/13 05:38:58;;;;;;;16.97;14.07;;;0.90;1.00;;;;;;6301139;28;20283;-54
2022/03/13 05:42:06;;;;;;;18.90;12.97;;;1.20;1.00;;;;;;6301797;28;20366;-54
2022/03/13 05:45:11;;;;;;;19.10;14.50;;;1.00;1.00;;;;;;6305987;28;20331;-54
2022/03/13 05:48:18;;;;;;;20.63;14.07;;;0.90;1.00;;;;;;6307389;28;20354;-54
2022/03/13 05:51:20;;;;;;;16.83;13.70;;;1.00;1.00;;;;;;6308640;28;20230;-55
2022/03/13 05:54:23;;;;;;;19.53;14.13;;;1.00;1.00;;;;;;6301061;28;20240;-54
2022/03/13 05:57:27;;;;;;;19.17;13.60;;;1.00;1.00;;;;;;6310830;28;20228;-54
2022/03/13 06:00:32;;;;;;;19.77;14.30;;;1.30;1.00;;;;;;6312152;28;20738;-54
2022/03/13 06:03:36;;;;;;;17.87;13.37;;;1.30;1.00;;;;;;6306907;28;20249;-54
2022/03/13 06:06:39;;;;;;;19.60;13.63;;;1.20;1.00;;;;;;6305697;28;20714;-54
2022/03/13 06:09:42;;;;;;;21.30;14.87;;;1.30;1.00;;;;;;6299507;28;20380;-54
2022/03/13 06:12:46;;;;;;;19.70;13.70;;;1.40;1.00;;;;;;6309419;28;20294;-55
2022/03/13 06:15:49;;;;;;;21.50;14.73;;;1.20;1.00;;;;;;6309053;28;20605;-54
2022/03/13 06:18:52;;;;;;;18.60;14.47;;;1.20;1.00;;;;;;6304764;28;20224;-54
2022/03/13 06:21:54;;;;;;;15.47;13.27;;;1.30;1.00;;;;;;6306609;28;20752;-54
2022/03/13 06:24:57;;;;;;;19.10;14.17;;;1.40;1.00;;;;;;6303656;28;20722;-54
2022/03/13 06:28:01;;;;;;;19.87;14.03;;;1.40;1.00;;;;;;6303303;28;20625;-54
2022/03/13 06:31:04;;;;;;;20.83;14.27;;;1.50;1.00;;;;;;6305463;28;20903;-53
2022/03/13 06:34:08;;;;;;;17.97;13.60;;;1.50;1.00;;;;;;6301604;28;20248;-55
2022/03/13 06:37:11;;;;;;;22.30;14.93;;;1.70;1.00;;;;;;6302414;28;20287;-57
2022/03/13 06:40:17;;;;;;;18.53;14.07;;;2.10;1.00;;;;;;6306589;28;20321;-55
2022/03/13 06:43:22;;;;;;;19.63;14.37;;;1.80;1.00;;;;;;6300856;28;20543;-55
2022/03/13 06:46:25;;;;;;;17.77;13.30;;;2.20;1.00;;;;;;6301059;28;20311;-54
2022/03/13 06:49:28;;;;;;;23.97;15.23;;;1.80;1.00;;;;;;6293140;28;20309;-54
2022/03/13 06:52:30;;;;;;;20.73;14.57;;;2.50;1.00;;;;;;6297588;28;20233;-56
2022/03/13 06:55:34;;;;;;;20.47;13.83;;;3.10;1.00;;;;;;6306883;28;20725;-54
2022/03/13 06:58:39;;;;;;;21.57;14.87;;;3.40;1.00;;;;;;6304493;28;20247;-55
2022/03/13 07:01:42;;;;;;;18.57;13.93;;;3.20;1.00;;;;;;6295504;28;20248;-56
2022/03/13 07:04:45;;;;;;;19.43;14.27;;;3.30;1.00;;;;;;6306078;28;20233;-54
2022/03/13 07:07:48;;;;;;;18.03;14.10;;;3.40;1.00;;;;;;6303852;28;20236;-55
2022/03/13 07:10:51;;;;;;;22.00;14.93;;;3.40;1.00;;;;;;6306254;28;20894;-53
2022/03/13 07:13:55;;;;;;;19.13;14.50;;;3.50;1.00;;;;;;6307085;28;20320;-55
2022/03/13 07:16:58;;;;;;;21.70;14.23;;;3.40;1.00;;;;;;6303803;28;20468;-53
2022/03/13 07:20:01;;;;;;;25.17;14.73;;;3.80;1.00;;;;;;6306398;28;20274;-54
2022/03/13 07:23:03;;;;;;;17.30;13.43;;;4.10;1.00;;;;;;6304126;28;20462;-56
2022/03/13 07:26:07;;;;;;;21.40;15.67;;;4.00;1.00;;;;;;6306254;28;20570;-54
2022/03/13 07:29:11;;;;;;;22.17;14.37;;;4.00;1.00;;;;;;6306855;28;20480;-55
2022/03/13 07:32:14;;;;;;;23.47;13.97;;;3.70;1.00;;;;;;6310540;28;20433;-55
2022/03/13 07:35:16;;;;;;;20.23;13.67;;;3.60;1.00;;;;;;6309598;28;20229;-54
2022/03/13 07:38:19;;;;;;;17.60;13.27;;;3.60;1.00;;;;;;6308520;28;20320;-56
2022/03/13 07:41:22;;;;;;;17.60;13.33;;;3.90;1.00;;;;;;6310748;28;20369;-54
2022/03/13 07:44:26;;;;;;;17.07;13.60;;;3.90;1.00;;;;;;6309341;28;20714;-54
2022/03/13 07:47:30;;;;;;;17.53;13.90;;;4.00;1.00;;;;;;6309262;28;20244;-55
2022/03/13 07:50:33;;;;;;;18.17;13.90;;;3.60;1.00;;;;;;6308230;28;20319;-54
2022/03/13 07:53:36;;;;;;;18.63;13.07;;;3.80;1.00;;;;;;6303519;28;20236;-54
2022/03/13 07:56:39;;;;;;;15.03;13.43;;;4.10;1.00;;;;;;6307794;28;20232;-54
2022/03/13 07:59:43;;;;;;;18.07;13.87;;;4.10;1.00;;;;;;6303158;28;20229;-55
2022/03/13 08:02:46;;;;;;;21.13;14.43;;;4.20;1.00;;;;;;6307029;28;20370;-55
2022/03/13 08:05:49;;;;;;;16.40;13.50;;;4.30;1.00;;;;;;6309167;28;20236;-56
2022/03/13 08:08:53;;;;;;;20.53;13.23;;;4.30;1.00;;;;;;6306356;28;20244;-54
2022/03/13 08:11:56;;;;;;;16.53;12.97;;;4.50;1.00;;;;;;6310679;28;20522;-55
2022/03/13 08:15:00;;;;;;;16.20;12.97;;;4.60;1.00;;;;;;6310098;28;20349;-55
2022/03/13 08:18:04;;;;;;;12.63;11.17;;;5.00;1.00;;;;;;6306953;28;20869;-55
2022/03/13 08:21:06;;;;;;;12.60;11.33;;;5.10;1.00;;;;;;6306481;28;20315;-52
2022/03/13 08:24:09;;;;;;;14.67;11.27;;;5.10;1.00;;;;;;6307872;28;20236;-54
2022/03/13 08:27:12;;;;;;;14.67;11.43;;;5.60;1.00;;;;;;6307015;28;20224;-55
2022/03/13 08:30:16;;;;;;;17.53;11.40;;;5.40;1.00;;;;;;6308243;28;20238;-55
2022/03/13 08:33:19;;;;;;;11.60;10.40;;;5.90;1.00;;;;;;6309265;28;20466;-54
2022/03/13 08:36:22;;;;;;;14.87;11.93;;;5.80;1.00;;;;;;6307401;28;20295;-54
2022/03/13 08:39:25;;;;;;;12.90;11.50;;;6.20;1.00;;;;;;6302966;28;20318;-54
2022/03/13 08:42:28;;;;;;;12.83;10.53;;;6.00;1.00;;;;;;6309040;28;20324;-56
2022/03/13 08:45:33;;;;;;;13.80;10.83;;;6.20;1.00;;;;;;6305906;28;20366;-55
2022/03/13 08:48:35;;;;;;;14.03;11.80;;;6.30;1.00;;;;;;6305978;28;20301;-54
2022/03/13 08:51:38;;;;;;;11.73;10.53;;;6.50;1.00;;;;;;6308348;28;20302;-53
2022/03/13 08:54:41;;;;;;;15.73;11.40;;;6.60;1.00;;;;;;6308641;28;20312;-55
2022/03/13 08:57:45;;;;;;;13.87;11.23;;;6.80;1.00;;;;;;6306613;28;20229;-54
2022/03/13 09:00:50;;;;;;;12.23;11.03;;;6.90;1.00;;;;;;6302929;28;20236;-56
2022/03/13 09:03:53;;;;;;;13.20;11.27;;;7.10;1.00;;;;;;6302430;28;20240;-54
2022/03/13 09:06:59;;;;;;;13.83;10.83;;;7.20;1.00;;;;;;6303859;28;20331;-53
2022/03/13 09:10:04;;;;;;;12.23;10.73;;;7.20;1.00;;;;;;6304103;28;20618;-54
2022/03/13 09:13:06;;;;;;;12.53;11.30;;;7.40;1.00;;;;;;6307248;28;20305;-54
2022/03/13 09:16:11;;;;;;;12.90;11.33;;;7.50;1.00;;;;;;6307285;28;20240;-53
2022/03/13 09:19:15;;;;;;;12.50;11.20;;;7.90;1.00;;;;;;6308465;28;20244;-56
2022/03/13 09:22:18;;;;;;;13.23;11.20;;;7.80;1.00;;;;;;6307448;28;20848;-55
2022/03/13 09:25:21;;;;;;;12.10;10.90;;;7.90;1.00;;;;;;6307187;28;20243;-55
2022/03/13 09:28:24;;;;;;;15.87;11.20;;;8.10;1.00;;;;;;6306180;28;20478;-55
2022/03/13 09:31:28;;;;;;;12.73;10.67;;;8.20;1.00;;;;;;6306314;28;20521;-55
2022/03/13 09:34:31;;;;;;;13.43;11.20;;;8.30;1.00;;;;;;6306079;28;20241;-55
2022/03/13 09:37:34;;;;;;;13.10;11.40;;;8.40;1.00;;;;;;6304480;28;20241;-55
2022/03/13 09:40:47;;;;;;;14.27;11.13;;;8.50;1.00;;;;;;6305480;28;20539;-56
2022/03/13 09:43:50;;;;;;;13.67;11.63;;;8.60;1.00;;;;;;6307134;28;20236;-56
2022/03/13 09:46:54;;;;;;;12.83;10.53;;;8.60;1.00;;;;;;6303057;28;20256;-55
2022/03/13 09:49:57;;;;;;;12.00;10.73;;;8.70;1.00;;;;;;6307151;28;20240;-54
2022/03/13 09:53:00;;;;;;;11.53;10.33;;;8.80;1.00;;;;;;6304800;28;20236;-55
2022/03/13 09:56:05;;;;;;;12.50;10.37;;;9.00;1.00;;;;;;6303387;28;20331;-56
2022/03/13 09:59:08;;;;;;;12.13;9.97;;;9.00;1.00;;;;;;6302837;28;20930;-56
2022/03/13 10:02:12;;;;;;;13.17;10.60;;;9.10;1.00;;;;;;6286333;28;20475;-55
2022/03/13 10:05:17;;;;;;;12.27;10.23;;;9.30;1.00;;;;;;6306335;28;20713;-55
2022/03/13 10:08:28;;;;;;;11.43;10.33;;;9.40;1.00;;;;;;6301787;28;20468;-56
2022/03/13 10:11:33;;;;;;;13.03;9.73;;;9.60;1.00;;;;;;6301175;28;20768;-55
2022/03/13 10:14:39;;;;;;;9.97;8.97;;;9.60;1.00;;;;;;6300894;28;20439;-55
2022/03/13 10:17:43;;;;;;;9.70;8.70;;;9.80;1.00;;;;;;6305838;28;20241;-56
2022/03/13 10:20:48;;;;;;;9.93;8.53;;;9.90;1.00;;;;;;6304246;28;20237;-55
2022/03/13 10:23:50;;;;;;;9.90;8.20;;;10.00;1.00;;;;;;6306988;28;20300;-55
2022/03/13 10:27:08;;;;;;;9.57;8.73;;;10.10;1.00;;;;;;6306716;28;20228;-57
2022/03/13 10:30:11;;;;;;;9.87;8.80;;;10.20;1.00;;;;;;6306058;28;20797;-56
2022/03/13 10:33:16;;;;;;;9.10;8.30;;;10.30;1.00;;;;;;6305546;28;20315;-56
2022/03/13 10:36:21;;;;;;;9.37;8.47;;;10.40;1.00;;;;;;6300123;28;20271;-56
2022/03/13 10:39:25;;;;;;;9.20;8.40;;;10.70;1.00;;;;;;6288829;28;20229;-55
2022/03/13 10:42:30;;;;;;;9.07;7.80;;;10.80;1.00;;;;;;6307800;28;20232;-57
2022/03/13 10:45:36;;;;;;;9.20;8.33;;;10.90;1.00;;;;;;6297024;28;20233;-54
2022/03/13 10:48:46;;;;;;;10.13;8.23;;;11.00;1.00;;;;;;6305119;28;20302;-55
2022/03/13 10:51:49;;;;;;;9.33;7.70;;;11.30;1.00;;;;;;6303320;28;20224;-55
2022/03/13 10:54:52;;;;;;;7.97;7.40;;;11.60;1.00;;;;;;6305552;28;20608;-56
2022/03/13 10:57:57;;;;;;;8.07;7.37;;;11.90;1.00;;;;;;6305974;28;20220;-56
2022/03/13 11:01:05;;;;;;;8.63;7.83;;;12.10;1.00;;;;;;6298412;28;20740;-54
2022/03/13 11:04:10;;;;;;;10.43;8.30;;;12.30;1.00;;;;;;6301326;28;20264;-55
2022/03/13 11:07:13;;;;;;;8.87;8.07;;;12.50;1.00;;;;;;6309194;28;20822;-54
2022/03/13 11:10:17;;;;;;;9.17;8.00;;;12.40;1.00;;;;;;6306255;28;20377;-57
2022/03/13 11:13:21;;;;;;;9.40;8.20;;;12.30;1.00;;;;;;6309835;28;20866;-53
2022/03/13 11:16:26;;;;;;;9.40;8.50;;;12.30;1.00;;;;;;6305314;28;20233;-54
2022/03/13 11:19:31;;;;;;;8.57;7.80;;;12.50;1.00;;;;;;6303471;28;20327;-56
2022/03/13 11:22:35;;;;;;;8.83;8.13;;;12.50;1.00;;;;;;6294284;28;20248;-54
2022/03/13 11:25:38;;;;;;;8.43;7.70;;;12.50;1.00;;;;;;6308179;28;20232;-56
2022/03/13 11:28:43;;;;;;;8.37;7.57;;;12.40;1.00;;;;;;6295505;28;20319;-55
2022/03/13 11:31:51;;;;;;;8.17;7.47;;;12.50;1.00;;;;;;6307125;28;20236;-55
2022/03/13 11:35:30;;;;;;;9.07;8.30;;;12.60;1.00;;;;;;6305049;28;20228;-56
2022/03/13 11:38:32;;;;;;;10.10;8.30;;;12.60;1.00;;;;;;6293413;28;20418;-56
2022/03/13 11:41:38;;;;;;;9.60;8.80;;;12.70;1.00;;;;;;6310161;28;20717;-57
2022/03/13 11:44:40;;;;;;;9.00;8.20;;;12.80;1.00;;;;;;6309570;28;20249;-57
2022/03/13 11:47:43;;;;;;;8.67;7.90;;;12.90;1.00;;;;;;6305968;28;20879;-55
2022/03/13 11:50:50;;;;;;;10.07;8.80;;;13.00;1.00;;;;;;6310419;28;20250;-56
2022/03/13 11:53:53;;;;;;;8.33;7.50;;;13.00;1.00;;;;;;6308699;28;20241;-56
2022/03/13 11:56:57;;;;;;;8.40;7.70;;;13.10;1.00;;;;;;6302965;28;20235;-57
2022/03/13 12:00:29;;;;;;;10.30;8.50;;;13.20;1.00;;;;;;6306952;28;20241;-56
2022/03/13 12:03:32;;;;;;;12.77;8.67;;;13.30;1.00;;;;;;6301896;28;20722;-54
2022/03/13 12:06:41;;;;;;;9.63;8.70;;;13.20;1.00;;;;;;6307700;28;20363;-54
2022/03/13 12:09:45;;;;;;;10.27;9.17;;;13.40;1.00;;;;;;6309855;28;20243;-55
2022/03/13 12:13:05;;;;;;;9.40;8.57;;;13.30;1.00;;;;;;6287475;28;20240;-61
2022/03/13 12:16:12;;;;;;;10.97;9.50;;;13.40;1.00;;;;;;6278371;28;20287;-56
2022/03/13 12:19:19;;;;;;;10.87;9.73;;;13.60;1.00;;;;;;6282912;28;20321;-56
2022/03/13 12:22:25;;;;;;;10.17;9.17;;;13.60;1.00;;;;;;6266356;28;20329;-55
2022/03/13 12:25:30;;;;;;;11.50;9.80;;;13.70;1.00;;;;;;6280183;28;20237;-55
2022/03/13 12:28:35;;;;;;;9.40;8.50;;;13.70;1.00;;;;;;6276722;28;20240;-55
2022/03/13 12:31:40;;;;;;;10.03;9.13;;;13.80;1.00;;;;;;6279491;28;20252;-55
2022/03/13 12:34:44;;;;;;;10.30;9.20;;;13.80;1.00;;;;;;6280575;28;20237;-56
2022/03/13 12:37:55;;;;;;;10.17;9.03;;;13.80;1.00;;;;;;6281505;28;20252;-56
2022/03/13 12:40:59;;;;;;;10.57;9.57;;;13.80;1.00;;;;;;6280878;28;20286;-57
2022/03/13 12:44:04;;;;;;;11.07;9.27;;;13.90;1.00;;;;;;6301755;28;20240;-54
2022/03/13 12:47:08;;;;;;;9.73;8.90;;;13.90;1.00;;;;;;6284543;28;20598;-57
2022/03/13 12:50:12;;;;;;;10.63;9.60;;;13.90;1.00;;;;;;6279443;28;20325;-56
2022/03/13 12:53:26;;;;;;;9.97;8.97;;;14.00;1.00;;;;;;6283982;28;20233;-57
2022/03/13 12:56:30;;;;;;;9.90;9.00;;;13.90;1.00;;;;;;6278716;28;20249;-54
2022/03/13 12:59:34;;;;;;;10.07;9.07;;;13.90;1.00;;;;;;6275132;28;20250;-54
2022/03/13 13:02:37;;;;;;;10.53;8.70;;;13.90;1.00;;;;;;6282203;28;20365;-56
2022/03/13 13:05:49;;;;;;;10.33;9.33;;;13.90;1.00;;;;;;6283104;28;20298;-56
2022/03/13 13:08:53;;;;;;;11.07;8.80;;;13.90;1.00;;;;;;6300280;28;20274;-55
2022/03/13 13:11:57;;;;;;;9.27;8.47;;;13.90;1.00;;;;;;6303177;28;20327;-55
2022/03/13 13:15:01;;;;;;;9.03;8.30;;;13.90;1.00;;;;;;6302114;28;20318;-57
2022/03/13 13:18:04;;;;;;;8.87;7.97;;;13.90;1.00;;;;;;6304596;28;20286;-58
2022/03/13 13:21:10;;;;;;;9.67;8.77;;;13.90;1.00;;;;;;6296173;28;20343;-55
2022/03/13 13:24:22;;;;;;;9.70;8.70;;;13.90;1.00;;;;;;6301458;28;20906;-61
2022/03/13 13:27:36;;;;;;;9.30;8.27;;;13.90;1.00;;;;;;6295940;28;20938;-57
2022/03/13 13:30:40;;;;;;;8.80;7.97;;;13.80;1.00;;;;;;6306094;28;20497;-55
2022/03/13 13:33:43;;;;;;;9.53;8.60;;;13.80;1.00;;;;;;6293588;28;20731;-57
2022/03/13 13:36:46;;;;;;;11.37;9.50;;;13.90;1.00;;;;;;6280557;28;20233;-56
2022/03/13 13:40:00;;;;;;;10.07;9.07;;;13.90;1.00;;;;;;6281707;28;20371;-55
2022/03/13 13:43:06;;;;;;;10.17;9.13;;;13.90;1.00;;;;;;6281045;28;20761;-54
2022/03/13 13:46:10;;;;;;;11.10;10.00;;;14.00;1.00;;;;;;6280245;28;20386;-54
2022/03/13 13:49:27;;;;;;;9.27;8.17;;;13.90;1.00;;;;;;6279670;28;20672;-55
2022/03/13 13:52:30;;;;;;;11.07;9.10;;;13.90;1.00;;;;;;6286064;28;20342;-56
2022/03/13 13:55:37;;;;;;;12.00;9.30;;;13.80;1.00;;;;;;6280782;28;20283;-56
2022/03/13 13:58:40;;;;;;;9.03;8.13;;;13.70;1.00;;;;;;6278989;28;20233;-55
2022/03/13 14:01:44;;;;;;;9.17;8.40;;;13.70;1.00;;;;;;6274150;28;20319;-57
2022/03/13 14:04:50;;;;;;;8.37;7.67;;;13.80;1.00;;;;;;6277110;28;20751;-56
2022/03/13 14:07:53;;;;;;;9.07;8.27;;;13.80;1.00;;;;;;6281582;28;20313;-55
2022/03/13 14:10:58;;;;;;;10.43;8.70;;;13.90;1.00;;;;;;6273783;28;20701;-54
2022/03/13 14:14:02;;;;;;;10.77;9.67;;;14.00;1.00;;;;;;6280895;28;20268;-54
2022/03/13 14:17:05;;;;;;;8.97;8.23;;;14.00;1.00;;;;;;6306060;28;20228;-55
2022/03/13 14:20:10;;;;;;;9.60;8.80;;;14.00;1.00;;;;;;6300699;28;20263;-55
2022/03/13 14:23:13;;;;;;;9.67;8.77;;;14.00;1.00;;;;;;6291982;28;20427;-55
2022/03/13 14:26:18;;;;;;;11.27;9.33;;;14.00;1.00;;;;;;6295105;28;20294;-55
2022/03/13 14:29:21;;;;;;;8.27;7.47;;;14.10;1.00;;;;;;6282140;28;20308;-55
2022/03/13 14:32:24;;;;;;;9.10;8.30;;;14.00;1.00;;;;;;6279579;28;20496;-55
2022/03/13 14:35:27;;;;;;;8.77;7.90;;;14.00;1.00;;;;;;6282083;28;20272;-55
2022/03/13 14:38:30;;;;;;;8.77;8.00;;;14.00;1.00;;;;;;6279984;28;20244;-56
2022/03/13 14:41:34;;;;;;;8.37;7.57;;;14.00;1.00;;;;;;6284463;28;20891;-55
2022/03/13 14:44:37;;;;;;;8.33;7.53;;;14.10;1.00;;;;;;6285117;28;20886;-54
2022/03/13 14:47:40;;;;;;;8.97;8.27;;;14.00;1.00;;;;;;6284839;28;20306;-56
2022/03/13 14:51:03;;;;;;;9.10;8.20;;;14.00;1.00;;;;;;6281220;28;20737;-56
2022/03/13 14:54:10;;;;;;;8.60;7.80;;;14.00;1.00;;;;;;6284682;28;20256;-55
2022/03/13 14:57:14;;;;;;;8.30;7.47;;;14.00;1.00;;;;;;6281038;28;20282;-55
2022/03/13 15:00:17;;;;;;;8.77;7.67;;;14.00;1.00;;;;;;6286804;28;20310;-57
2022/03/13 15:03:20;;;;;;;8.07;7.27;;;14.10;1.00;;;;;;6282954;28;20229;-56
2022/03/13 15:06:23;;;;;;;7.70;7.10;;;14.10;1.00;;;;;;6279152;28;20733;-56
2022/03/13 15:09:26;;;;;;;7.70;7.10;;;14.10;1.00;;;;;;6283635;28;20323;-55
2022/03/13 15:12:30;;;;;;;8.30;7.43;;;14.10;1.00;;;;;;6285233;28;20320;-55
2022/03/13 15:15:33;;;;;;;8.07;7.43;;;14.00;1.00;;;;;;6281744;28;20297;-57
2022/03/13 15:18:36;;;;;;;7.83;7.20;;;14.00;1.00;;;;;;6285235;28;20387;-55
2022/03/13 15:21:39;;;;;;;7.80;7.13;;;13.90;1.00;;;;;;6281127;28;20260;-57
2022/03/13 15:24:42;;;;;;;7.73;7.00;;;13.80;1.00;;;;;;6283297;28;20313;-56
2022/03/13 15:27:46;;;;;;;9.77;7.00;;;13.80;1.00;;;;;;6284770;28;20317;-55
2022/03/13 15:30:54;;;;;;;7.83;7.10;;;13.60;1.00;;;;;;6283835;28;20241;-55
2022/03/13 15:33:57;;;;;;;8.20;7.43;;;13.50;1.00;;;;;;6281202;28;20248;-56
2022/03/13 15:37:00;;;;;;;8.00;7.40;;;13.30;1.00;;;;;;6283996;28;20241;-55
2022/03/13 15:40:04;;;;;;;7.90;7.30;;;13.20;1.00;;;;;;6279791;28;20221;-55
2022/03/13 15:43:08;;;;;;;7.43;6.80;;;13.20;1.00;;;;;;6280208;28;20379;-56
2022/03/13 15:46:10;;;;;;;8.00;7.20;;;13.10;1.00;;;;;;6282939;28;20309;-57
2022/03/13 15:49:13;;;;;;;7.83;7.13;;;13.00;1.00;;;;;;6275333;28;20741;-54
2022/03/13 15:52:16;;;;;;;9.07;7.73;;;12.80;1.00;;;;;;6286204;28;20538;-54
2022/03/13 15:55:19;;;;;;;7.57;6.97;;;12.70;1.00;;;;;;6281536;28;20617;-56
2022/03/13 15:58:23;;;;;;;8.73;7.33;;;12.70;1.00;;;;;;6293967;28;20266;-55
2022/03/13 16:01:27;;;;;;;7.90;7.10;;;12.60;1.00;;;;;;6286970;28;20316;-55
2022/03/13 16:04:31;;;;;;;7.97;6.97;;;12.50;1.00;;;;;;6284593;28;20255;-54